Time;durP1;ratioP1;P1;durP2;ratioP2;P2;SDS_P1;SDS_P2;PMS_P1;PMS_P2;Temp;Humidity;BMP_temperature;BMP_pressure;BME280_temperature;BME280_humidity;BME280_pressure;Samples;Min_cycle;Max_cycle;Signal;HPM_P1;HPM_P2
2021/08/12 00:02:25;;;;;;;;;10.00;9.00;;;;;23.35;53.32;101480.38;5000634;28;46117;-82
2021/08/12 00:04:51;;;;;;;;;15.50;12.75;;;;;23.37;53.62;101486.56;5000963;28;45244;-83
2021/08/12 00:07:17;;;;;;;;;9.50;9.50;;;;;23.35;53.75;101477.66;5000867;28;45330;-83
2021/08/12 00:09:42;;;;;;;;;12.00;11.00;;;;;23.33;53.77;101482.34;5000897;28;45475;-82
2021/08/12 00:12:07;;;;;;;;;11.75;10.25;;;;;23.29;53.85;101479.84;5000416;28;46036;-83
2021/08/12 00:14:33;;;;;;;;;10.50;9.25;;;;;23.26;53.85;101471.03;5000706;28;45299;-82
2021/08/12 00:16:58;;;;;;;;;13.75;10.25;;;;;23.23;53.94;101472.13;5000698;28;45442;-82
2021/08/12 00:19:23;;;;;;;;;10.50;9.50;;;;;23.23;53.16;101474.84;5000717;28;45287;-82
2021/08/12 00:21:49;;;;;;;;;9.00;9.00;;;;;23.21;53.11;101476.81;5000400;28;46184;-83
2021/08/12 00:24:14;;;;;;;;;7.00;7.00;;;;;23.21;53.59;101475.97;5000714;28;45246;-82
2021/08/12 00:26:41;;;;;;;;;8.00;7.75;;;;;23.19;53.65;101478.78;5000498;28;45434;-82
2021/08/12 00:29:07;;;;;;;;;10.00;8.25;;;;;23.17;53.78;101478.03;5000355;28;45300;-82
2021/08/12 00:31:34;;;;;;;;;8.00;8.00;;;;;23.16;53.75;101476.28;5000403;28;45209;-82
2021/08/12 00:33:59;;;;;;;;;10.50;9.50;;;;;23.10;53.63;101471.28;5000214;28;46416;-82
2021/08/12 00:36:24;;;;;;;;;8.50;7.25;;;;;23.06;52.98;101464.31;5000512;28;45267;-83
2021/08/12 00:38:50;;;;;;;;;9.00;9.00;;;;;23.06;52.94;101456.16;5000371;28;45199;-82
2021/08/12 00:41:15;;;;;;;;;10.00;8.25;;;;;23.01;52.82;101453.75;5000263;28;46204;-82
2021/08/12 00:43:41;;;;;;;;;10.00;10.00;;;;;23.01;52.96;101461.91;5000135;28;45221;-82
2021/08/12 00:46:06;;;;;;;;;7.25;7.25;;;;;23.03;52.95;101457.22;5000403;28;45510;-82
2021/08/12 00:48:31;;;;;;;;;9.00;9.00;;;;;23.02;53.05;101460.06;5000135;28;46079;-83
2021/08/12 00:50:57;;;;;;;;;8.00;7.00;;;;;23.05;53.22;101462.56;5000259;28;45234;-83
2021/08/12 00:53:23;;;;;;;;;9.75;9.00;;;;;23.04;53.47;101460.84;5000335;28;45666;-82
2021/08/12 00:55:48;;;;;;;;;9.50;9.00;;;;;23.06;53.86;101456.16;5000157;28;46504;-83
2021/08/12 00:58:15;;;;;;;;;9.50;9.50;;;;;23.01;53.64;101455.63;4999905;28;45483;-82
2021/08/12 01:00:41;;;;;;;;;10.25;9.25;;;;;23.01;53.79;101450.16;5000047;28;46093;-82
2021/08/12 01:03:10;;;;;;;;;9.25;8.75;;;;;22.98;53.56;101450.41;5000068;28;45356;-82
2021/08/12 01:05:50;;;;;;;;;9.25;7.50;;;;;22.97;53.50;101445.91;5000153;28;45198;-82
2021/08/12 01:08:42;;;;;;;;;9.50;8.75;;;;;22.94;53.79;101442.44;5000003;28;45301;-82
2021/08/12 01:11:23;;;;;;;;;7.50;7.00;;;;;22.92;54.11;101448.97;5000050;28;46105;-82
2021/08/12 01:13:57;;;;;;;;;9.75;9.00;;;;;22.89;54.32;101443.78;4999778;28;45221;-82
2021/08/12 01:16:28;;;;;;;;;12.25;10.00;;;;;22.86;54.23;101447.59;5000044;28;45317;-82
2021/08/12 01:19:00;;;;;;;;;9.50;8.75;;;;;22.85;54.37;101448.56;4999887;28;45466;-82
2021/08/12 01:21:44;;;;;;;;;10.00;10.00;;;;;22.82;54.40;101448.81;4999721;28;46329;-82
2021/08/12 01:24:12;;;;;;;;;10.00;10.00;;;;;22.80;54.59;101455.31;4999840;28;45431;-82
2021/08/12 01:26:41;;;;;;;;;10.25;10.25;;;;;22.70;54.96;101446.97;4999787;28;45462;-83
2021/08/12 01:29:18;;;;;;;;;11.00;10.00;;;;;22.75;54.97;101453.81;4999696;28;45266;-82
2021/08/12 01:31:44;;;;;;;;;9.00;9.00;;;;;22.72;54.91;101459.47;4999782;28;45294;-82
2021/08/12 01:34:20;;;;;;;;;8.00;8.00;;;;;22.67;55.02;101455.34;4998248;28;45296;-82
2021/08/12 01:36:48;;;;;;;;;8.50;8.50;;;;;22.64;55.04;101450.13;4999940;28;45249;-83
2021/08/12 01:39:15;;;;;;;;;9.50;9.25;;;;;22.65;54.90;101449.13;4999582;28;45939;-82
2021/08/12 01:41:43;;;;;;;;;10.00;9.50;;;;;22.62;55.44;101447.53;4999625;28;46188;-82
2021/08/12 01:44:12;;;;;;;;;8.00;8.00;;;;;22.62;55.39;101460.25;4999767;28;45241;-82
2021/08/12 01:46:38;;;;;;;;;10.00;10.00;;;;;22.54;55.31;101448.06;5003291;28;45447;-82
2021/08/12 01:49:04;;;;;;;;;12.75;9.25;;;;;22.57;55.61;101466.03;5002771;28;45533;-82
2021/08/12 01:51:32;;;;;;;;;10.25;9.25;;;;;22.54;55.68;101455.38;5002875;28;46158;-83
2021/08/12 01:54:00;;;;;;;;;10.00;10.00;;;;;22.55;55.65;101459.81;5002669;28;45713;-83
2021/08/12 01:56:27;;;;;;;;;11.25;11.00;;;;;22.54;56.05;101455.38;5003126;28;45301;-83
2021/08/12 01:58:56;;;;;;;;;10.25;9.00;;;;;22.49;55.56;101455.69;5002403;28;45407;-82
2021/08/12 02:01:22;;;;;;;;;11.00;11.00;;;;;22.49;55.98;101460.28;5002784;28;46639;-82
2021/08/12 02:03:49;;;;;;;;;9.50;9.50;;;;;22.48;55.78;101461.25;5002625;28;45401;-83
2021/08/12 02:06:15;;;;;;;;;10.00;10.00;;;;;22.46;56.05;101452.31;5002938;28;45289;-83
2021/08/12 02:08:40;;;;;;;;;12.00;10.00;;;;;22.43;56.14;101458.84;5002601;28;45506;-83
2021/08/12 02:11:05;;;;;;;;;12.50;10.25;;;;;22.42;56.00;101462.56;5002902;28;45343;-83
2021/08/12 02:13:32;;;;;;;;;10.75;9.75;;;;;22.38;56.07;101464.59;5002371;28;45413;-82
2021/08/12 02:15:58;;;;;;;;;11.50;10.00;;;;;22.37;56.03;101456.56;5002731;28;45319;-82
2021/08/12 02:18:24;;;;;;;;;8.75;8.75;;;;;22.37;56.24;101462.03;5002223;28;45426;-83
2021/08/12 02:21:03;;;;;;;;;12.50;11.00;;;;;22.36;56.31;101460.25;5002641;28;46085;-82
2021/08/12 02:23:40;;;;;;;;;11.25;10.25;;;;;22.34;56.88;101446.78;5002347;28;45316;-83
2021/08/12 02:26:14;;;;;;;;;16.50;13.00;;;;;22.33;56.17;101441.44;5002324;28;45310;-83
2021/08/12 02:28:41;;;;;;;;;20.50;14.00;;;;;22.31;57.07;101430.66;5002444;28;45475;-83
2021/08/12 02:31:09;;;;;;;;;11.50;11.50;;;;;22.30;56.73;101436.22;5002183;28;46561;-82
2021/08/12 02:33:38;;;;;;;;;13.50;13.50;;;;;22.30;56.81;101439.81;5002216;28;45299;-82
2021/08/12 02:36:05;;;;;;;;;17.00;16.00;;;;;22.30;57.15;101444.38;5002420;28;45236;-83
2021/08/12 02:38:32;;;;;;;;;16.00;15.75;;;;;22.29;57.02;101448.09;5002151;28;45249;-82
2021/08/12 02:40:57;;;;;;;;;14.75;13.75;;;;;22.30;57.09;101453.41;5002056;28;45432;-82
2021/08/12 02:43:25;;;;;;;;;15.75;15.00;;;;;22.29;57.53;101451.66;5001982;28;45430;-83
2021/08/12 02:45:54;;;;;;;;;17.50;17.50;;;;;22.27;57.47;101453.59;5002242;28;45241;-82
2021/08/12 02:48:24;;;;;;;;;18.50;17.50;;;;;22.28;57.20;101454.47;5002124;28;45525;-83
2021/08/12 02:50:51;;;;;;;;;17.50;15.75;;;;;22.27;56.96;101453.59;5001971;28;46314;-83
2021/08/12 02:53:20;;;;;;;;;18.25;17.25;;;;;22.27;57.01;101455.44;5002035;28;45273;-82
2021/08/12 02:55:45;;;;;;;;;17.00;16.00;;;;;22.25;57.75;101450.09;5000744;28;45487;-82
2021/08/12 02:58:11;;;;;;;;;16.00;16.00;;;;;22.24;57.52;101451.09;4990039;28;45446;-83
2021/08/12 03:00:38;;;;;;;;;21.00;18.25;;;;;22.22;56.68;101453.06;5000136;28;46267;-82
2021/08/12 03:03:05;;;;;;;;;18.25;17.25;;;;;22.22;57.08;101453.06;5001782;28;45396;-82
2021/08/12 03:05:35;;;;;;;;;18.00;17.25;;;;;22.19;57.53;101451.41;5001818;28;45233;-82
2021/08/12 03:08:02;;;;;;;;;18.00;16.00;;;;;22.16;57.12;101438.03;5001837;28;45225;-82
2021/08/12 03:10:28;;;;;;;;;16.00;15.75;;;;;22.12;57.11;101444.66;5001543;28;46268;-83
2021/08/12 03:12:55;;;;;;;;;13.50;11.00;;;;;22.13;56.88;101440.94;5001337;28;45457;-82
2021/08/12 03:15:22;;;;;;;;;11.50;11.50;;;;;22.17;57.34;101445.22;5001897;28;45316;-82
2021/08/12 03:17:47;;;;;;;;;17.75;14.75;;;;;22.16;56.70;101431.72;5001564;28;45148;-82
2021/08/12 03:20:13;;;;;;;;;12.00;12.00;;;;;22.10;56.84;101427.59;5001574;28;45798;-83
2021/08/12 03:22:40;;;;;;;;;12.00;12.00;;;;;22.13;56.51;101446.38;5001539;28;45220;-82
2021/08/12 03:25:06;;;;;;;;;12.50;11.50;;;;;22.12;57.41;101441.94;5001688;28;45201;-82
2021/08/12 03:27:31;;;;;;;;;11.25;10.00;;;;;22.11;57.36;101440.19;5001240;28;45414;-83
2021/08/12 03:29:57;;;;;;;;;11.50;10.25;;;;;22.11;57.04;101439.34;5001374;28;45233;-83
2021/08/12 03:32:22;;;;;;;;;15.25;14.25;;;;;22.02;56.94;101440.84;5001307;28;45446;-82
2021/08/12 03:34:47;;;;;;;;;11.50;11.00;;;;;22.04;56.67;101441.63;5001536;28;45302;-82
2021/08/12 03:37:14;;;;;;;;;11.00;8.75;;;;;22.05;57.49;101442.47;5001366;28;45269;-83
2021/08/12 03:39:40;;;;;;;;;9.25;9.25;;;;;22.05;56.80;101447.91;5001347;28;45355;-82
2021/08/12 03:42:06;;;;;;;;;10.50;10.50;;;;;22.08;57.69;101436.81;5000950;28;45418;-82
2021/08/12 03:44:31;;;;;;;;;11.00;11.00;;;;;22.07;57.03;101440.50;5001439;28;45447;-82
2021/08/12 03:46:57;;;;;;;;;11.50;9.00;;;;;22.06;56.91;101450.53;5001284;28;45248;-84
2021/08/12 03:49:22;;;;;;;;;12.00;10.25;;;;;22.02;56.55;101447.16;5001023;28;45245;-82
2021/08/12 03:51:47;;;;;;;;;9.50;9.50;;;;;21.97;57.23;101441.16;5001330;28;45195;-82
2021/08/12 03:54:13;;;;;;;;;10.75;10.25;;;;;21.99;56.93;101436.50;5000871;28;45143;-83
2021/08/12 03:56:38;;;;;;;;;12.75;10.00;;;;;21.95;56.96;101434.97;5001297;28;45224;-83
2021/08/12 03:59:04;;;;;;;;;11.00;10.00;;;;;21.94;56.49;101443.25;4987360;28;45573;-83
2021/08/12 04:01:30;;;;;;;;;10.75;10.75;;;;;21.89;57.13;101442.69;4999856;28;46512;-83
2021/08/12 04:03:56;;;;;;;;;10.00;10.00;;;;;21.84;56.69;101429.41;5000957;28;45398;-83
2021/08/12 04:06:21;;;;;;;;;10.50;10.50;;;;;21.76;57.49;101427.22;5000786;28;45359;-83
2021/08/12 04:08:46;;;;;;;;;10.75;7.75;;;;;21.75;57.29;101433.63;5000248;28;46184;-83
2021/08/12 04:11:12;;;;;;;;;9.75;7.75;;;;;21.79;57.40;101437.00;5000864;28;45258;-83
2021/08/12 04:13:37;;;;;;;;;9.75;9.75;;;;;21.69;57.41;101419.59;5000732;28;45516;-83
2021/08/12 04:16:03;;;;;;;;;12.50;8.25;;;;;21.73;57.71;101421.13;5000849;28;45308;-82
2021/08/12 04:18:28;;;;;;;;;10.25;9.75;;;;;21.73;57.26;101421.13;5000380;28;46068;-82
2021/08/12 04:20:54;;;;;;;;;11.50;11.00;;;;;21.76;57.56;101424.50;5000669;28;45295;-83
2021/08/12 04:23:19;;;;;;;;;9.50;8.00;;;;;21.75;57.69;101421.88;5000824;28;45322;-83
2021/08/12 04:25:45;;;;;;;;;10.00;8.50;;;;;21.70;57.28;101408.63;5000497;28;45453;-83
2021/08/12 04:28:11;;;;;;;;;8.75;8.00;;;;;21.70;57.97;101414.06;5000221;28;46814;-83
2021/08/12 04:30:37;;;;;;;;;11.25;10.00;;;;;21.74;57.97;101420.16;5000606;28;45320;-83
2021/08/12 04:33:02;;;;;;;;;9.25;9.00;;;;;21.69;57.42;101411.44;5000468;28;45387;-83
2021/08/12 04:35:28;;;;;;;;;8.00;8.00;;;;;21.73;57.50;101419.25;5000570;28;45422;-83
2021/08/12 04:37:53;;;;;;;;;9.75;9.25;;;;;21.70;57.98;101418.59;5000129;28;46142;-82
2021/08/12 04:40:20;;;;;;;;;11.50;11.50;;;;;21.73;58.20;101424.69;5000536;28;45316;-83
2021/08/12 04:42:47;;;;;;;;;10.50;10.00;;;;;21.71;57.43;101418.50;5000231;28;45237;-82
2021/08/12 04:45:13;;;;;;;;;10.75;9.00;;;;;21.73;58.34;101412.97;5000297;28;45427;-83
2021/08/12 04:47:38;;;;;;;;;13.25;12.25;;;;;21.70;58.02;101408.63;5000058;28;45302;-84
2021/08/12 04:50:05;;;;;;;;;11.25;10.00;;;;;21.68;57.74;101415.13;5000297;28;45314;-83
2021/08/12 04:52:31;;;;;;;;;12.00;11.50;;;;;21.65;58.15;101418.91;5000270;28;45359;-83
2021/08/12 04:54:56;;;;;;;;;9.25;7.25;;;;;21.63;57.75;101419.06;5000183;28;46466;-83
2021/08/12 04:57:21;;;;;;;;;13.25;10.75;;;;;21.61;58.36;101417.41;4999700;28;45323;-83
2021/08/12 04:59:47;;;;;;;;;12.25;11.25;;;;;21.62;58.08;101422.72;5000362;28;45276;-83
2021/08/12 05:02:12;;;;;;;;;10.25;9.25;;;;;21.54;58.27;101405.22;5000072;28;45878;-83
2021/08/12 05:04:37;;;;;;;;;10.00;6.75;;;;;21.59;58.52;101412.06;5000164;28;45442;-84
2021/08/12 05:07:03;;;;;;;;;10.25;10.25;;;;;21.60;58.21;101416.53;4999801;28;45675;-83
2021/08/12 05:09:29;;;;;;;;;10.00;9.50;;;;;21.60;58.27;101413.81;5000307;28;45272;-83
2021/08/12 05:11:54;;;;;;;;;10.50;9.75;;;;;21.64;58.48;101428.91;4999739;28;45517;-83
2021/08/12 05:14:19;;;;;;;;;11.75;11.75;;;;;21.63;58.80;101418.16;5000196;28;45643;-84
2021/08/12 05:16:45;;;;;;;;;8.50;8.50;;;;;21.62;58.38;101414.59;4999827;28;46236;-83
2021/08/12 05:19:10;;;;;;;;;10.00;10.00;;;;;21.63;58.31;101415.44;5000432;28;45150;-84
2021/08/12 05:21:35;;;;;;;;;8.75;8.50;;;;;21.62;58.91;101413.72;5003458;28;45201;-83
2021/08/12 05:24:00;;;;;;;;;12.00;9.75;;;;;21.64;58.40;101417.19;5003528;28;45287;-84
2021/08/12 05:26:26;;;;;;;;;3.50;3.50;;;;;21.56;58.68;101405.97;5003061;28;45426;-83
2021/08/12 05:28:51;;;;;;;;;11.50;10.50;;;;;21.64;58.92;101420.78;5003507;28;45633;-83
2021/08/12 05:31:17;;;;;;;;;14.50;11.00;;;;;21.64;58.34;101425.34;5003311;28;45355;-84
2021/08/12 05:33:42;;;;;;;;;9.25;7.00;;;;;21.61;58.95;101425.53;5003344;28;45357;-83
2021/08/12 05:36:08;;;;;;;;;8.25;8.25;;;;;21.65;58.99;101430.69;5003070;28;45272;-83
2021/08/12 05:38:34;;;;;;;;;9.25;9.00;;;;;21.65;58.94;101432.50;5003192;28;45465;-83
2021/08/12 05:40:59;;;;;;;;;11.00;11.00;;;;;21.67;59.00;101432.41;5003118;28;45316;-83
2021/08/12 05:43:25;;;;;;;;;14.25;12.00;;;;;21.67;58.85;101429.69;5003025;28;45282;-83
2021/08/12 05:45:51;;;;;;;;;11.25;10.25;;;;;21.67;58.99;101436.00;5002853;28;46258;-83
2021/08/12 05:48:17;;;;;;;;;11.25;9.00;;;;;21.67;58.85;101426.97;5003320;28;45219;-83
2021/08/12 05:50:45;;;;;;;;;12.25;11.50;;;;;21.63;58.78;101416.34;5002937;28;45209;-83
2021/08/12 05:53:12;;;;;;;;;15.00;13.75;;;;;21.63;58.80;101415.44;5003097;28;45392;-84
2021/08/12 05:55:37;;;;;;;;;11.25;10.75;;;;;21.66;58.93;101423.38;5002495;28;46040;-84
2021/08/12 05:58:02;;;;;;;;;11.00;10.50;;;;;21.65;59.01;101421.63;5002565;28;45327;-84
2021/08/12 06:00:28;;;;;;;;;11.75;11.75;;;;;21.63;58.92;101421.75;5002981;28;45312;-83
2021/08/12 06:02:53;;;;;;;;;11.50;11.00;;;;;21.65;58.99;101427.97;5002711;28;45499;-83
2021/08/12 06:05:19;;;;;;;;;10.00;10.00;;;;;21.66;58.76;101426.09;5002729;28;45470;-83
2021/08/12 06:07:44;;;;;;;;;14.00;12.75;;;;;21.65;59.29;101429.78;5002674;28;45237;-83
2021/08/12 06:10:09;;;;;;;;;13.00;12.75;;;;;21.70;58.72;101433.09;5002794;28;45251;-83
2021/08/12 06:12:35;;;;;;;;;11.00;11.00;;;;;21.73;59.41;101441.00;5002465;28;45494;-83
2021/08/12 06:15:00;;;;;;;;;13.00;12.00;;;;;21.77;59.20;101444.41;5002415;28;46260;-84
2021/08/12 06:17:26;;;;;;;;;13.50;11.25;;;;;21.78;59.31;101449.72;5002512;28;45402;-83
2021/08/12 06:19:51;;;;;;;;;14.00;13.50;;;;;21.78;58.70;101449.72;5002557;28;45747;-84
2021/08/12 06:22:19;;;;;;;;;10.75;10.75;;;;;21.76;58.41;101448.94;5002489;28;45372;-84
2021/08/12 06:24:44;;;;;;;;;15.50;13.00;;;;;21.71;58.74;101433.94;5002356;28;46908;-84
2021/08/12 06:27:09;;;;;;;;;12.75;11.00;;;;;21.73;58.38;101441.00;5002118;28;45322;-84
2021/08/12 06:29:35;;;;;;;;;11.50;10.75;;;;;21.75;59.18;101443.63;5002411;28;45383;-84
2021/08/12 06:32:01;;;;;;;;;11.75;11.75;;;;;21.74;58.59;101444.59;5002055;28;45533;-83
2021/08/12 06:34:26;;;;;;;;;9.50;9.50;;;;;21.74;58.64;101441.88;5002063;28;45232;-83
2021/08/12 06:36:51;;;;;;;;;12.75;10.75;;;;;21.77;59.25;101445.25;5002489;28;45363;-83
2021/08/12 06:39:17;;;;;;;;;14.25;12.00;;;;;21.82;59.08;101450.41;5002224;28;45373;-84
2021/08/12 06:41:43;;;;;;;;;15.00;13.25;;;;;21.80;58.97;101441.44;5002376;28;45291;-83
2021/08/12 06:44:09;;;;;;;;;13.25;13.25;;;;;21.83;59.63;101449.41;5001690;28;47170;-83
2021/08/12 06:46:34;;;;;;;;;13.75;11.75;;;;;21.81;58.35;101445.91;5002262;28;45320;-83
2021/08/12 06:49:00;;;;;;;;;13.25;13.00;;;;;21.80;58.81;101442.34;5002006;28;45387;-83
2021/08/12 06:51:25;;;;;;;;;14.00;13.00;;;;;21.81;58.87;101446.78;5001976;28;45312;-83
2021/08/12 06:53:50;;;;;;;;;15.50;13.50;;;;;21.78;58.60;101447.00;5001665;28;46339;-82
2021/08/12 06:56:16;;;;;;;;;12.25;12.25;;;;;21.82;58.59;101456.69;5002088;28;45308;-83
2021/08/12 06:58:41;;;;;;;;;13.75;13.75;;;;;21.83;59.23;101449.41;5001724;28;45376;-83
2021/08/12 07:01:06;;;;;;;;;19.00;15.75;;;;;21.86;58.89;101454.63;5002152;28;45302;-83
2021/08/12 07:03:32;;;;;;;;;14.75;13.25;;;;;21.83;58.82;101450.28;5001584;28;46070;-84
2021/08/12 07:05:57;;;;;;;;;16.25;15.00;;;;;21.86;59.07;101454.63;5002023;28;45255;-84
2021/08/12 07:08:22;;;;;;;;;12.75;12.25;;;;;21.87;58.51;101441.91;5001540;28;45290;-83
2021/08/12 07:10:47;;;;;;;;;14.50;12.75;;;;;21.91;58.61;101443.44;5001919;28;45315;-83
2021/08/12 07:13:13;;;;;;;;;11.25;10.75;;;;;21.91;58.61;101428.00;5001313;28;46021;-83
2021/08/12 07:15:38;;;;;;;;;19.25;16.50;;;;;21.97;58.48;101427.59;5001680;28;45404;-84
2021/08/12 07:18:03;;;;;;;;;14.75;13.50;;;;;21.99;58.55;101436.50;5001134;28;49741;-83
2021/08/12 07:20:29;;;;;;;;;15.00;13.50;;;;;22.03;59.33;101423.56;5001818;28;45145;-84
2021/08/12 07:22:54;;;;;;;;;12.25;12.25;;;;;22.06;58.84;101434.22;5001469;28;45450;-84
2021/08/12 07:25:21;;;;;;;;;14.25;14.25;;;;;22.10;59.04;101437.59;5001557;28;45260;-85
2021/08/12 07:27:49;;;;;;;;;15.25;15.25;;;;;22.13;58.60;101437.38;5001402;28;45293;-83
2021/08/12 07:30:14;;;;;;;;;15.25;13.75;;;;;22.14;58.37;101431.84;5001587;28;45332;-84
2021/08/12 07:32:58;;;;;;;;;13.50;13.50;;;;;22.21;58.24;101435.00;5001116;28;45461;-84
2021/08/12 07:35:24;;;;;;;;;13.75;12.50;;;;;22.20;57.93;101434.13;5001548;28;45439;-84
2021/08/12 07:37:49;;;;;;;;;14.00;14.00;;;;;22.28;58.02;101438.16;5001446;28;45311;-85
2021/08/12 07:40:15;;;;;;;;;14.25;14.00;;;;;22.31;58.42;101430.66;5001312;28;45304;-84
2021/08/12 07:42:40;;;;;;;;;16.75;15.25;;;;;22.35;58.16;101432.22;5000105;28;45431;-84
2021/08/12 07:45:06;;;;;;;;;20.75;18.25;;;;;22.39;58.35;101433.72;5001286;28;45287;-84
2021/08/12 07:47:32;;;;;;;;;14.00;14.00;;;;;22.41;58.29;101430.88;5001253;28;45403;-85
2021/08/12 07:49:58;;;;;;;;;16.75;14.00;;;;;22.44;57.98;101430.66;5001142;28;45509;-84
2021/08/12 07:52:23;;;;;;;;;13.00;11.25;;;;;22.48;57.82;101426.72;5000766;28;45287;-84
2021/08/12 07:54:50;;;;;;;;;17.00;14.25;;;;;22.52;57.98;101427.38;5001191;28;45193;-85
2021/08/12 07:57:16;;;;;;;;;19.00;16.00;;;;;22.51;58.19;101415.63;5000794;28;45796;-85
2021/08/12 07:59:41;;;;;;;;;16.00;16.00;;;;;22.50;58.00;101418.47;5001105;28;45321;-84
2021/08/12 08:02:07;;;;;;;;;16.75;16.75;;;;;22.61;57.65;101421.28;5000799;28;45390;-84
2021/08/12 08:04:33;;;;;;;;;16.50;15.50;;;;;22.60;57.53;101413.22;5000798;28;45512;-85
2021/08/12 08:07:00;;;;;;;;;14.75;13.75;;;;;22.66;58.15;101413.66;5000791;28;45530;-85
2021/08/12 08:09:25;;;;;;;;;11.50;11.00;;;;;22.68;57.95;101417.13;5000852;28;45300;-85
2021/08/12 08:11:51;;;;;;;;;16.25;15.00;;;;;22.74;57.66;101415.84;5000310;28;45299;-84
2021/08/12 08:14:16;;;;;;;;;13.25;12.50;;;;;22.79;57.25;101426.34;5000873;28;45307;-84
2021/08/12 08:16:43;;;;;;;;;14.75;14.75;;;;;22.80;56.98;101428.97;5000670;28;45291;-84
2021/08/12 08:19:08;;;;;;;;;15.75;15.75;;;;;22.83;57.81;101425.16;5000778;28;45271;-85
2021/08/12 08:21:33;;;;;;;;;16.75;15.50;;;;;22.85;57.26;101420.47;5000550;28;45399;-84
2021/08/12 08:23:59;;;;;;;;;14.25;14.25;;;;;22.85;57.16;101420.47;5000736;28;45228;-85
2021/08/12 08:26:24;;;;;;;;;16.25;15.00;;;;;22.87;57.24;101426.66;5000558;28;45478;-85
2021/08/12 08:28:49;;;;;;;;;15.25;14.50;;;;;22.88;57.09;101425.69;5000296;28;47653;-84
2021/08/12 08:31:15;;;;;;;;;12.25;12.25;;;;;22.81;57.50;101406.22;5000351;28;45321;-84
2021/08/12 08:33:40;;;;;;;;;17.00;14.50;;;;;22.89;57.23;101417.41;5000258;28;45194;-85
2021/08/12 08:36:06;;;;;;;;;14.50;14.25;;;;;22.95;58.20;101421.53;5000444;28;45546;-85
2021/08/12 08:38:32;;;;;;;;;15.25;13.75;;;;;23.00;57.80;101415.75;5000318;28;45363;-85
2021/08/12 08:40:59;;;;;;;;;13.75;12.50;;;;;23.01;57.50;101409.34;4999952;28;45362;-84
2021/08/12 08:43:24;;;;;;;;;11.25;10.50;;;;;23.07;57.56;101417.06;5000110;28;45453;-84
2021/08/12 08:45:51;;;;;;;;;15.25;12.75;;;;;23.04;57.58;101420.00;5000182;28;45322;-85
2021/08/12 08:48:17;;;;;;;;;17.75;14.25;;;;;23.10;57.32;101425.00;5000379;28;45289;-84
2021/08/12 08:50:44;;;;;;;;;15.50;14.50;;;;;23.12;56.89;101425.75;4999960;28;47006;-84
2021/08/12 08:53:15;;;;;;;;;15.25;13.25;;;;;23.18;56.57;101433.47;5000322;28;45331;-85
2021/08/12 08:55:41;;;;;;;;;19.25;18.25;;;;;23.18;57.01;101421.72;5000175;28;46379;-84
2021/08/12 08:58:06;;;;;;;;;20.25;17.75;;;;;23.22;57.02;101431.38;4999851;28;45528;-84
2021/08/12 09:00:32;;;;;;;;;14.50;13.50;;;;;23.23;56.78;101439.44;5000111;28;45335;-85
2021/08/12 09:02:57;;;;;;;;;19.25;15.75;;;;;23.26;56.88;101441.06;5000033;28;45292;-85
2021/08/12 09:05:23;;;;;;;;;15.00;14.25;;;;;23.29;56.99;101449.88;5000248;28;45298;-85
2021/08/12 09:07:52;;;;;;;;;17.75;16.75;;;;;23.35;57.16;101447.69;5000060;28;45487;-84
2021/08/12 09:10:18;;;;;;;;;13.00;13.00;;;;;23.40;56.69;101442.75;4999782;28;46475;-85
2021/08/12 09:12:45;;;;;;;;;14.50;13.25;;;;;23.44;56.78;101439.69;4999809;28;45424;-85
2021/08/12 09:15:18;;;;;;;;;15.75;13.00;;;;;23.50;56.76;101441.06;5000086;28;45307;-84
2021/08/12 09:17:44;;;;;;;;;12.25;10.25;;;;;23.53;55.96;101439.97;4999767;28;45319;-86
2021/08/12 09:20:16;;;;;;;;;11.25;11.25;;;;;23.57;55.94;101445.09;4999740;28;46142;-85
2021/08/12 09:22:58;;;;;;;;;13.75;12.50;;;;;23.58;55.44;101438.63;5000051;28;45340;-85
2021/08/12 09:25:34;;;;;;;;;14.25;13.25;;;;;23.62;55.49;101437.41;4999958;28;45444;-85
2021/08/12 09:28:19;;;;;;;;;12.75;12.75;;;;;23.63;55.37;101438.28;4999564;28;45423;-85
2021/08/12 09:31:03;;;;;;;;;17.75;17.00;;;;;23.65;55.35;101445.34;4999809;28;46329;-85
2021/08/12 09:33:31;;;;;;;;;15.00;13.00;;;;;23.68;55.56;101444.25;4999593;28;45444;-84
2021/08/12 09:35:57;;;;;;;;;13.75;12.00;;;;;23.72;56.17;101442.16;4999797;28;45273;-84
2021/08/12 09:38:23;;;;;;;;;14.50;13.50;;;;;23.76;55.63;101438.22;4999726;28;45345;-85
2021/08/12 09:40:55;;;;;;;;;16.00;15.00;;;;;23.81;55.40;101438.72;4999397;28;46353;-85
2021/08/12 09:43:21;;;;;;;;;16.25;14.00;;;;;23.83;55.28;101432.19;4999522;28;45371;-85
2021/08/12 09:45:46;;;;;;;;;12.50;11.50;;;;;23.86;54.98;101431.09;4999799;28;45500;-84
2021/08/12 09:48:15;;;;;;;;;16.25;14.75;;;;;23.85;55.54;101430.19;4999601;28;45301;-84
2021/08/12 09:50:43;;;;;;;;;11.75;11.75;;;;;23.94;55.66;101431.38;4999215;28;46307;-84
2021/08/12 09:53:17;;;;;;;;;13.25;12.25;;;;;23.98;55.17;101432.84;4999679;28;45411;-85
2021/08/12 09:55:43;;;;;;;;;15.75;14.50;;;;;24.03;54.37;101433.34;4999450;28;45243;-85
2021/08/12 09:58:10;;;;;;;;;17.00;12.00;;;;;24.08;55.49;101421.22;4999097;28;45441;-85
2021/08/12 10:00:41;;;;;;;;;15.25;14.25;;;;;24.18;55.81;101422.22;4999397;28;45234;-85
2021/08/12 10:03:27;;;;;;;;;13.00;12.00;;;;;24.28;55.61;101422.38;4999285;28;45318;-85
2021/08/12 10:05:55;;;;;;;;;14.50;13.25;;;;;24.31;54.47;101420.25;5001140;28;45447;-85
2021/08/12 10:08:35;;;;;;;;;17.50;12.50;;;;;24.36;54.22;101412.56;5002801;28;45251;-84
2021/08/12 10:11:28;;;;;;;;;13.25;13.00;;;;;24.41;54.50;101423.13;5002652;28;46212;-84
2021/08/12 10:14:04;;;;;;;;;11.50;11.00;;;;;24.42;55.43;101414.81;5000839;28;45435;-84
2021/08/12 10:16:35;;;;;;;;;13.00;12.75;;;;;24.53;54.60;101413.94;5001451;28;45295;-85
2021/08/12 10:19:03;;;;;;;;;14.00;12.00;;;;;24.64;55.21;101414.97;5002444;28;45217;-85
2021/08/12 10:21:29;;;;;;;;;12.75;12.75;;;;;24.73;54.26;101411.50;5002666;28;47033;-85
2021/08/12 10:23:57;;;;;;;;;15.50;15.00;;;;;24.81;53.23;101416.31;5002517;28;45530;-85
2021/08/12 10:26:28;;;;;;;;;11.50;10.25;;;;;24.86;54.07;101408.59;5002314;28;45455;-84
2021/08/12 10:29:03;;;;;;;;;16.00;14.00;;;;;24.86;53.19;101405.88;5002223;28;45462;-85
2021/08/12 10:31:30;;;;;;;;;15.50;13.00;;;;;24.91;52.92;101412.72;5002323;28;46814;-85
2021/08/12 10:33:57;;;;;;;;;13.25;12.25;;;;;24.92;53.29;101410.84;5001082;28;45371;-86
2021/08/12 10:36:23;;;;;;;;;9.50;9.50;;;;;24.89;52.97;101400.16;5002361;28;45368;-85
2021/08/12 10:38:49;;;;;;;;;16.25;15.25;;;;;24.98;53.46;101413.06;5002307;28;45686;-84
2021/08/12 10:41:16;;;;;;;;;12.25;11.00;;;;;25.01;52.83;101415.56;5002071;28;45352;-85
2021/08/12 10:43:45;;;;;;;;;13.25;11.75;;;;;25.02;52.95;101411.81;5002137;28;45239;-85
2021/08/12 10:46:10;;;;;;;;;16.75;13.00;;;;;25.08;53.42;101407.72;5002167;28;45264;-85
2021/08/12 10:48:36;;;;;;;;;17.25;16.50;;;;;25.15;52.84;101408.94;5002008;28;45303;-85
2021/08/12 10:51:07;;;;;;;;;11.25;11.00;;;;;25.21;52.69;101405.69;5002011;28;46154;-85
2021/08/12 10:53:34;;;;;;;;;15.75;13.75;;;;;25.25;52.91;101411.75;5002008;28;45328;-85
2021/08/12 10:56:02;;;;;;;;;12.00;12.00;;;;;25.31;53.11;101408.56;5001962;28;45335;-85
2021/08/12 10:58:33;;;;;;;;;11.75;11.75;;;;;25.35;52.91;101410.00;5001718;28;45451;-85
2021/08/12 11:01:00;;;;;;;;;16.75;13.75;;;;;25.38;52.62;101408.91;5001929;28;46382;-85
2021/08/12 11:03:31;;;;;;;;;14.50;13.25;;;;;25.39;52.12;101408.75;5001895;28;45381;-85
2021/08/12 11:06:00;;;;;;;;;12.00;11.00;;;;;25.37;52.57;101396.22;5002016;28;45280;-85
2021/08/12 11:11:25;;;;;;;;;11.50;10.75;;;;;25.45;52.16;101407.38;5001716;28;46125;-86
2021/08/12 11:13:52;;;;;;;;;9.75;9.75;;;;;25.46;51.48;101407.25;5001586;28;45430;-85
2021/08/12 11:16:19;;;;;;;;;12.50;11.00;;;;;25.50;51.69;101405.09;5000154;28;45440;-86